createdAt,value
2022-12-26T00:02:38.815Z,58.90
2022-12-26T00:07:41.099Z,58.80
2022-12-26T00:12:43.385Z,58.60
2022-12-26T00:17:45.632Z,59.00
2022-12-26T00:22:47.872Z,58.50
2022-12-26T00:27:50.111Z,58.50
2022-12-26T00:32:52.369Z,58.40
2022-12-26T00:37:55.831Z,58.50
2022-12-26T00:42:58.066Z,58.50
2022-12-26T00:48:00.581Z,58.70
2022-12-26T00:53:02.799Z,58.50
2022-12-26T00:58:05.626Z,58.60
2022-12-26T01:03:08.953Z,58.60
2022-12-26T01:08:22.825Z,58.60
2022-12-26T01:13:26.255Z,58.70
2022-12-26T01:18:29.371Z,58.60
2022-12-26T01:23:31.839Z,58.70
2022-12-26T01:28:34.093Z,58.70
2022-12-26T01:33:36.630Z,58.70
2022-12-26T01:38:38.905Z,58.80
2022-12-26T01:49:15.454Z,59.00
2022-12-26T01:54:39.811Z,59.00
2022-12-26T01:59:42.197Z,58.80
2022-12-26T02:05:09.232Z,59.00
2022-12-26T02:10:17.620Z,59.00
2022-12-26T02:15:19.919Z,59.00
2022-12-26T02:20:29.842Z,58.90
2022-12-26T02:31:02.055Z,59.00
2022-12-26T02:36:44.910Z,58.80
2022-12-26T02:41:58.221Z,58.90
2022-12-26T02:47:12.821Z,58.80
2022-12-26T02:52:41.142Z,58.60
2022-12-26T02:58:14.675Z,58.60
2022-12-26T03:03:42.396Z,58.50
2022-12-26T03:09:15.429Z,58.60
2022-12-26T03:14:23.884Z,58.70
2022-12-26T03:19:29.189Z,58.80
2022-12-26T03:24:51.457Z,58.70
2022-12-26T03:30:13.555Z,58.70
2022-12-26T03:35:16.542Z,58.60
2022-12-26T03:51:30.306Z,58.90
2022-12-26T03:57:00.935Z,58.90
2022-12-26T04:02:29.427Z,58.80
2022-12-26T04:07:58.537Z,58.90
2022-12-26T04:13:25.245Z,58.90
2022-12-26T04:19:12.310Z,59.00
2022-12-26T04:24:43.062Z,58.60
2022-12-26T04:30:05.857Z,58.40
2022-12-26T04:35:51.049Z,58.50
2022-12-26T04:41:19.933Z,58.50
2022-12-26T04:46:23.966Z,58.50
2022-12-26T04:51:26.225Z,58.50
2022-12-26T04:56:28.480Z,58.40
2022-12-26T05:01:50.905Z,58.40
2022-12-26T05:07:13.076Z,58.50
2022-12-26T05:12:15.439Z,58.80
2022-12-26T05:17:37.637Z,58.90
2022-12-26T05:23:02.009Z,58.80
2022-12-26T05:28:24.436Z,59.00
2022-12-26T05:33:46.685Z,59.00
2022-12-26T05:38:49.236Z,59.10
2022-12-26T05:43:51.524Z,59.20
2022-12-26T05:48:53.773Z,59.60
2022-12-26T05:53:56.037Z,59.30
2022-12-26T05:59:00.901Z,59.10
2022-12-26T06:04:03.565Z,59.50
2022-12-26T06:09:05.967Z,59.20
2022-12-26T06:14:08.190Z,60.10
2022-12-26T06:19:10.456Z,59.80
2022-12-26T06:24:14.167Z,60.00
2022-12-26T06:29:16.452Z,60.00
2022-12-26T06:34:18.945Z,60.00
2022-12-26T06:39:21.645Z,60.70
2022-12-26T06:44:23.892Z,59.90
2022-12-26T06:49:32.424Z,59.90
2022-12-26T06:54:35.345Z,59.90
2022-12-26T06:59:37.598Z,59.70
2022-12-26T07:04:39.849Z,60.00
2022-12-26T07:09:42.258Z,59.80
2022-12-26T07:14:44.446Z,59.60
2022-12-26T07:19:46.668Z,59.90
2022-12-26T07:24:48.912Z,59.70
2022-12-26T07:29:51.132Z,60.50
2022-12-26T07:34:53.366Z,60.60
2022-12-26T07:39:59.258Z,59.90
2022-12-26T07:45:01.753Z,60.80
2022-12-26T07:50:04.651Z,60.90
2022-12-26T07:55:27.238Z,66.30
2022-12-26T08:00:29.512Z,66.10
2022-12-26T08:05:31.780Z,59.10
2022-12-26T08:10:34.045Z,57.50
2022-12-26T08:15:39.688Z,56.70
2022-12-26T08:20:41.898Z,58.00
2022-12-26T08:25:44.478Z,55.70
2022-12-26T08:30:46.876Z,55.10
2022-12-26T08:35:49.162Z,53.10
2022-12-26T08:40:56.323Z,52.60
2022-12-26T08:46:08.343Z,50.40
2022-12-26T08:51:16.458Z,50.80
2022-12-26T08:56:21.976Z,51.90
2022-12-26T09:01:27.231Z,52.80
2022-12-26T09:06:32.391Z,48.70
2022-12-26T09:11:35.140Z,48.20
2022-12-26T09:16:49.291Z,45.30
2022-12-26T09:22:12.478Z,47.40
2022-12-26T09:27:14.768Z,50.00
2022-12-26T09:32:17.333Z,48.60
2022-12-26T09:37:19.567Z,49.40
2022-12-26T09:42:47.123Z,49.70
2022-12-26T09:53:04.570Z,50.00
2022-12-26T10:03:27.023Z,50.10
2022-12-26T10:14:03.964Z,50.50
2022-12-26T10:19:19.415Z,50.10
2022-12-26T10:24:25.372Z,48.80
2022-12-26T10:29:33.836Z,49.30
2022-12-26T10:34:42.257Z,49.60
2022-12-26T10:45:55.334Z,49.90
2022-12-26T10:51:38.319Z,50.50
2022-12-26T10:56:40.802Z,50.20
2022-12-26T11:01:47.766Z,50.80
2022-12-26T11:06:53.932Z,51.20
2022-12-26T11:11:56.217Z,51.20
2022-12-26T11:17:01.581Z,51.40
2022-12-26T11:22:24.280Z,50.90
2022-12-26T11:27:26.550Z,51.80
2022-12-26T11:32:29.302Z,52.30
2022-12-26T11:37:40.803Z,52.40
2022-12-26T11:42:43.373Z,52.00
2022-12-26T11:47:46.450Z,52.70
2022-12-26T12:03:22.759Z,53.60
2022-12-26T12:56:51.387Z,54.40
2022-12-26T13:02:04.002Z,54.30
2022-12-26T13:07:20.830Z,54.70
2022-12-26T13:12:30.875Z,56.00
2022-12-26T13:17:45.247Z,56.10
2022-12-26T13:23:13.183Z,55.40
2022-12-26T13:28:25.049Z,56.10
2022-12-26T13:33:28.335Z,56.30
2022-12-26T14:05:34.654Z,58.50
2022-12-26T14:11:01.080Z,58.20
2022-12-26T14:16:31.477Z,58.60
2022-12-26T14:22:05.047Z,58.60
2022-12-26T14:27:32.348Z,58.60
2022-12-26T14:32:50.780Z,58.60
2022-12-26T14:38:19.074Z,58.90
2022-12-26T14:43:33.924Z,59.00
2022-12-26T14:54:14.037Z,59.30
2022-12-26T15:41:41.771Z,62.50
2022-12-26T15:46:52.594Z,63.30
2022-12-26T15:52:11.237Z,63.10
2022-12-26T16:07:46.106Z,62.80
2022-12-26T16:18:31.034Z,62.80
2022-12-26T16:23:37.833Z,62.80
2022-12-26T16:28:42.874Z,63.10
2022-12-26T16:33:45.367Z,63.80
2022-12-26T16:38:48.643Z,63.80
2022-12-26T16:43:54.131Z,63.40
2022-12-26T16:48:59.968Z,63.80
2022-12-26T16:59:42.825Z,63.80
2022-12-26T17:04:58.117Z,63.90
2022-12-26T17:10:01.615Z,64.20
2022-12-26T17:15:06.063Z,63.80
2022-12-26T17:25:34.040Z,63.60
2022-12-26T17:30:39.501Z,63.50
2022-12-26T17:36:38.066Z,63.50
2022-12-26T17:41:09.824Z,64.40
2022-12-26T17:46:15.262Z,64.40
2022-12-26T17:51:18.860Z,64.30
2022-12-26T17:56:24.378Z,65.00
2022-12-26T18:01:26.776Z,64.90
2022-12-26T18:06:29.362Z,64.90
2022-12-26T18:23:40.058Z,63.60
2022-12-26T18:28:42.908Z,65.80
2022-12-26T18:33:45.279Z,65.30
2022-12-26T18:38:47.601Z,65.20
2022-12-26T18:43:49.885Z,65.00
2022-12-26T18:48:54.105Z,65.30
2022-12-26T18:53:56.485Z,65.00
2022-12-26T18:58:58.788Z,65.10
2022-12-26T19:04:01.122Z,65.20
2022-12-26T19:09:03.407Z,65.20
2022-12-26T19:14:10.116Z,65.20
2022-12-26T19:19:12.464Z,64.90
2022-12-26T19:24:14.853Z,65.20
2022-12-26T19:29:17.096Z,65.00
2022-12-26T19:34:19.468Z,64.80
2022-12-26T19:55:20.762Z,63.40
2022-12-26T20:00:23.570Z,64.70
2022-12-26T20:05:26.010Z,64.00
2022-12-26T20:10:28.657Z,63.90
2022-12-26T20:15:33.569Z,63.90
2022-12-26T20:20:35.992Z,64.10
2022-12-26T20:25:39.005Z,64.00
2022-12-26T20:30:41.446Z,64.10
2022-12-26T20:35:44.332Z,64.20
2022-12-26T20:40:50.069Z,64.20
2022-12-26T20:45:54.026Z,64.30
2022-12-26T20:50:58.919Z,64.30
2022-12-26T20:56:01.576Z,64.30
2022-12-26T21:01:14.444Z,64.30
2022-12-26T21:06:19.657Z,64.40
2022-12-26T21:11:25.390Z,64.10
2022-12-26T21:16:34.636Z,63.90
2022-12-26T21:21:38.960Z,63.80
2022-12-26T21:26:42.616Z,63.90
2022-12-26T21:31:45.945Z,63.80
2022-12-26T21:37:08.362Z,63.80
2022-12-26T21:42:11.357Z,63.70
2022-12-26T21:47:13.822Z,63.90
2022-12-26T21:52:16.249Z,64.00
2022-12-26T21:57:19.637Z,64.10
2022-12-26T22:02:43.213Z,63.90
2022-12-26T22:07:45.862Z,63.80
2022-12-26T22:13:03.921Z,63.80
2022-12-26T22:18:06.291Z,63.70
2022-12-26T22:23:08.800Z,63.80
2022-12-26T22:28:11.260Z,63.80
2022-12-26T22:33:13.639Z,63.80
2022-12-26T22:38:16.060Z,63.70
2022-12-26T22:43:18.480Z,63.60
2022-12-26T22:48:21.889Z,63.70
2022-12-26T22:53:26.576Z,63.70
2022-12-26T22:58:30.197Z,63.60
2022-12-26T23:03:32.643Z,63.50
2022-12-26T23:08:35.309Z,63.50
2022-12-26T23:13:38.043Z,64.00
2022-12-26T23:46:29.747Z,63.30
2022-12-26T23:51:52.035Z,63.20
2022-12-26T23:57:14.420Z,63.30
